Time;durP1;ratioP1;P1;durP2;ratioP2;P2;SDS_P1;SDS_P2;PMS_P1;PMS_P2;Temp;Humidity;BMP_temperature;BMP_pressure;BME280_temperature;BME280_humidity;BME280_pressure;Samples;Min_cycle;Max_cycle;Signal;HPM_P1;HPM_P2
2022/06/27 00:01:29;;;;;;;13.80;8.15;;;;;;;17.53;97.81;101349.63;4883994;29;20064;-72
2022/06/27 00:03:55;;;;;;;12.45;8.10;;;;;;;17.53;96.47;101349.63;4898115;29;20039;-72
2022/06/27 00:06:20;;;;;;;9.77;7.65;;;;;;;17.56;96.59;101342.81;4916719;29;20028;-72
2022/06/27 00:08:49;;;;;;;12.35;8.00;;;;;;;17.53;98.17;101338.66;4918077;29;20511;-72
2022/06/27 00:11:16;;;;;;;11.15;7.60;;;;;;;17.57;98.15;101349.09;4917764;29;20503;-72
2022/06/27 00:13:41;;;;;;;12.25;8.38;;;;;;;17.58;99.52;101351.56;4917740;29;20036;-72
2022/06/27 00:16:07;;;;;;;12.10;7.60;;;;;;;17.58;95.83;101357.03;4917793;29;20032;-72
2022/06/27 00:18:32;;;;;;;9.73;7.40;;;;;;;17.61;95.31;101356.53;4910712;29;20047;-72
2022/06/27 00:20:58;;;;;;;9.55;7.45;;;;;;;17.53;99.53;101351.53;4898974;29;20048;-72
2022/06/27 00:23:23;;;;;;;11.45;7.65;;;;;;;17.60;98.99;101348.56;4898615;29;20380;-72
2022/06/27 00:25:48;;;;;;;13.85;7.70;;;;;;;17.58;100.00;101361.69;4898645;29;20045;-72
2022/06/27 00:28:14;;;;;;;10.40;7.28;;;;;;;17.60;98.93;101365.00;4898556;29;20036;-72
2022/06/27 00:30:39;;;;;;;10.63;7.75;;;;;;;17.56;100.00;101367.44;4881763;29;20032;-72
2022/06/27 00:33:05;;;;;;;9.07;7.30;;;;;;;17.56;96.95;101363.84;4881815;29;20050;-72
2022/06/27 00:35:30;;;;;;;11.20;7.38;;;;;;;17.51;96.63;101367.38;4898107;29;20189;-72
2022/06/27 00:37:56;;;;;;;10.90;7.45;;;;;;;17.51;96.97;101365.47;4896731;29;20025;-72
2022/06/27 00:40:21;;;;;;;13.50;7.78;;;;;;;17.53;95.00;101360.56;4879686;29;20052;-73
2022/06/27 00:42:46;;;;;;;10.57;7.70;;;;;;;17.52;99.33;101374.50;4879823;29;20037;-72
2022/06/27 00:45:12;;;;;;;13.23;7.85;;;;;;;17.47;97.31;101372.53;4863174;29;20039;-72
2022/06/27 00:47:37;;;;;;;11.25;8.30;;;;;;;17.47;98.48;101367.06;4862840;29;20029;-72
2022/06/27 00:50:04;;;;;;;10.27;7.90;;;;;;;17.45;98.36;101380.19;4879848;29;20175;-72
2022/06/27 00:52:30;;;;;;;11.13;8.68;;;;;;;17.44;99.70;101384.00;4862469;29;20041;-72
2022/06/27 00:54:55;;;;;;;17.25;8.40;;;;;;;17.45;96.40;101384.81;4879333;29;20032;-72
2022/06/27 00:57:21;;;;;;;10.95;8.25;;;;;;;17.50;100.00;101385.72;4862564;29;20076;-72
2022/06/27 00:59:47;;;;;;;16.23;8.98;;;;;;;17.49;98.53;101386.78;4879709;29;20033;-72
2022/06/27 01:02:13;;;;;;;12.73;8.88;;;;;;;17.51;99.86;101384.63;4888812;29;20131;-72
2022/06/27 01:04:39;;;;;;;12.90;9.10;;;;;;;17.46;98.71;101381.81;4897986;29;20028;-72
2022/06/27 01:07:09;;;;;;;12.55;8.70;;;;;;;17.48;100.00;101389.78;4897846;29;20468;-73
2022/06/27 01:09:35;;;;;;;14.18;8.27;;;;;;;17.45;100.00;101380.19;4916527;29;20036;-72
2022/06/27 01:12:02;;;;;;;14.57;8.73;;;;;;;17.47;100.00;101383.50;4917206;29;20046;-72
2022/06/27 01:14:27;;;;;;;11.75;8.60;;;;;;;17.50;99.61;101396.66;4899574;29;20043;-72
2022/06/27 01:16:53;;;;;;;10.90;8.60;;;;;;;17.45;100.00;101385.66;4917184;29;20047;-72
2022/06/27 01:19:19;;;;;;;11.98;8.13;;;;;;;17.43;100.00;101390.56;4916873;29;20059;-72
2022/06/27 01:21:51;;;;;;;11.45;8.35;;;;;;;17.45;100.00;101391.13;4916281;29;20032;-72
2022/06/27 01:24:18;;;;;;;12.50;8.35;;;;;;;17.47;100.00;101402.63;4900238;29;20040;-73
2022/06/27 01:26:44;;;;;;;10.82;7.65;;;;;;;17.43;100.00;101393.28;4896988;29;20625;-72
2022/06/27 01:29:10;;;;;;;13.30;8.38;;;;;;;17.44;100.00;101394.13;4897394;29;20492;-72
2022/06/27 01:31:36;;;;;;;14.68;8.57;;;;;;;17.45;100.00;101385.66;4897483;29;20060;-72
2022/06/27 01:34:01;;;;;;;13.63;8.38;;;;;;;17.47;100.00;101371.72;4880656;29;20116;-72
2022/06/27 01:36:42;;;;;;;12.63;7.95;;;;;;;17.50;99.42;101380.22;4877302;29;20060;-72
2022/06/27 01:39:10;;;;;;;12.18;7.80;;;;;;;17.49;100.00;101364.88;4879075;29;20029;-72
2022/06/27 01:41:39;;;;;;;11.25;8.07;;;;;;;17.52;98.67;101352.59;4861882;29;20037;-72
2022/06/27 01:44:05;;;;;;;10.88;7.68;;;;;;;17.47;100.00;101347.09;4878956;29;20029;-72
2022/06/27 01:46:59;;;;;;;9.80;8.13;;;;;;;17.56;96.58;101342.81;4878438;29;20031;-72
2022/06/27 01:49:26;;;;;;;12.90;7.85;;;;;;;17.49;96.40;101347.66;4856603;29;20049;-72
2022/06/27 01:51:52;;;;;;;13.20;8.02;;;;;;;17.50;98.34;101354.78;4877531;29;20035;-72
2022/06/27 01:54:21;;;;;;;11.60;7.93;;;;;;;17.46;98.59;101346.25;4896463;29;20029;-73
2022/06/27 01:56:49;;;;;;;11.63;7.80;;;;;;;17.47;98.71;101339.72;4897275;29;20063;-72
2022/06/27 01:59:16;;;;;;;14.55;7.72;;;;;;;17.48;99.96;101343.25;4897521;29;20033;-72
2022/06/27 02:01:42;;;;;;;14.35;8.48;;;;;;;17.44;96.63;101340.22;4884970;29;20044;-72
2022/06/27 02:04:10;;;;;;;13.85;8.60;;;;;;;17.45;98.70;101336.41;4895050;29;20050;-72
2022/06/27 02:06:35;;;;;;;12.23;8.32;;;;;;;17.44;99.06;101331.22;4880378;29;20491;-72
2022/06/27 02:09:04;;;;;;;12.23;8.32;;;;;;;17.45;98.83;101335.56;4897423;29;20033;-72
2022/06/27 02:11:29;;;;;;;14.07;8.23;;;;;;;17.45;100.00;101330.09;4880316;29;20384;-72
2022/06/27 02:13:55;;;;;;;12.18;8.40;;;;;;;17.42;99.96;101334.19;4880538;29;20119;-72
2022/06/27 02:16:21;;;;;;;10.50;7.93;;;;;;;17.42;100.00;101326.00;4879838;29;20079;-72
2022/06/27 02:18:47;;;;;;;12.30;8.23;;;;;;;17.44;99.96;101323.81;4897303;29;20123;-74
2022/06/27 02:21:16;;;;;;;13.40;8.57;;;;;;;17.41;99.88;101324.34;4897350;29;20037;-71
2022/06/27 02:23:42;;;;;;;12.15;8.73;;;;;;;17.44;99.63;101320.25;4880297;29;20051;-71
2022/06/27 02:26:08;;;;;;;12.82;8.73;;;;;;;17.42;100.00;101315.06;4896990;29;20399;-70
2022/06/27 02:28:35;;;;;;;13.68;8.10;;;;;;;17.42;100.00;101319.69;4897002;29;20424;-72
2022/06/27 02:31:01;;;;;;;11.80;8.25;;;;;;;17.38;99.82;101319.38;4896847;29;20039;-72
2022/06/27 02:33:37;;;;;;;10.77;8.35;;;;;;;17.39;100.00;101315.53;4897194;29;20612;-72
2022/06/27 02:36:04;;;;;;;10.48;8.70;;;;;;;17.39;100.00;101321.00;4896825;29;20120;-72
2022/06/27 02:38:30;;;;;;;14.85;8.60;;;;;;;17.40;100.00;101311.72;4896139;29;20036;-73
2022/06/27 02:40:58;;;;;;;10.85;7.72;;;;;;;17.37;100.00;101317.72;4881460;29;20535;-75
2022/06/27 02:43:26;;;;;;;11.48;8.80;;;;;;;17.37;100.00;101306.78;4900667;29;20115;-70
2022/06/27 02:45:53;;;;;;;12.25;8.68;;;;;;;17.36;100.00;101307.84;4900523;29;20067;-70
2022/06/27 02:48:21;;;;;;;9.57;8.48;;;;;;;17.37;100.00;101309.53;4900604;29;20063;-71
2022/06/27 02:50:51;;;;;;;9.90;8.30;;;;;;;17.30;100.00;101296.06;4900343;29;20036;-72
2022/06/27 02:53:22;;;;;;;12.00;8.98;;;;;;;17.31;100.00;101291.41;4900549;29;20361;-73
2022/06/27 02:55:49;;;;;;;11.15;8.90;;;;;;;17.28;100.00;101292.75;4900277;29;20092;-70
2022/06/27 02:58:45;;;;;;;12.77;8.82;;;;;;;17.30;100.00;101279.66;4883488;29;20048;-71
2022/06/27 03:01:12;;;;;;;9.77;8.30;;;;;;;17.22;100.00;101273.81;4890521;29;20052;-73
2022/06/27 03:03:41;;;;;;;12.57;8.90;;;;;;;17.22;100.00;101282.03;4881489;29;20060;-72
2022/06/27 03:06:07;;;;;;;11.70;8.68;;;;;;;17.18;100.00;101268.03;4881376;29;20037;-73
2022/06/27 03:08:44;;;;;;;13.45;8.85;;;;;;;17.20;100.00;101270.53;4881382;29;20032;-70
2022/06/27 03:11:12;;;;;;;10.02;8.20;;;;;;;17.14;100.00;101265.00;4881550;29;20037;-70
2022/06/27 03:13:37;;;;;;;13.90;9.35;;;;;;;17.09;100.00;101264.97;4864529;29;20040;-72
2022/06/27 03:16:03;;;;;;;11.90;9.00;;;;;;;17.04;100.00;101270.38;4881182;29;20033;-72
2022/06/27 03:18:28;;;;;;;12.85;9.43;;;;;;;16.92;100.00;101272.44;4881535;29;20036;-72
2022/06/27 03:20:54;;;;;;;12.43;9.38;;;;;;;16.93;100.00;101274.09;4880888;29;20033;-70
2022/06/27 03:23:20;;;;;;;15.27;9.30;;;;;;;16.87;100.00;101270.47;4869088;29;20039;-72
2022/06/27 03:25:46;;;;;;;11.80;9.50;;;;;;;16.90;100.00;101283.63;4881392;29;20366;-73
2022/06/27 03:28:11;;;;;;;16.20;9.30;;;;;;;16.87;100.00;101275.13;4881127;29;20044;-71
2022/06/27 03:30:37;;;;;;;13.93;9.90;;;;;;;16.80;100.00;101262.44;4881023;29;20444;-70
2022/06/27 03:33:03;;;;;;;13.75;9.73;;;;;;;16.74;100.00;101266.22;4881067;29;20087;-70
2022/06/27 03:35:28;;;;;;;13.27;9.80;;;;;;;16.76;100.00;101268.69;4880790;29;20037;-72
2022/06/27 03:37:53;;;;;;;11.00;9.00;;;;;;;16.70;100.00;101270.53;4863890;29;20041;-71
2022/06/27 03:40:19;;;;;;;15.07;9.38;;;;;;;16.66;100.00;101274.84;4864278;29;20036;-71
2022/06/27 03:42:44;;;;;;;12.75;9.68;;;;;;;16.62;100.00;101271.81;4880695;29;20068;-71
2022/06/27 03:45:10;;;;;;;13.48;9.40;;;;;;;16.60;100.00;101270.41;4865115;29;20410;-70
2022/06/27 03:47:57;;;;;;;12.95;9.82;;;;;;;16.62;100.00;101273.69;4899487;29;20036;-72
2022/06/27 03:50:24;;;;;;;13.27;9.55;;;;;;;16.56;100.00;101274.72;4899615;29;20036;-71
2022/06/27 03:52:51;;;;;;;13.15;9.77;;;;;;;16.58;100.00;101278.84;4868713;29;20532;-73
2022/06/27 03:55:16;;;;;;;13.10;10.00;;;;;;;16.53;100.00;101280.69;4880491;29;20036;-71
2022/06/27 03:57:48;;;;;;;13.45;9.77;;;;;;;16.47;100.00;101283.38;4880279;29;20097;-71
2022/06/27 04:00:14;;;;;;;13.88;10.27;;;;;;;16.40;100.00;101285.47;4880636;29;20036;-73
2022/06/27 04:02:39;;;;;;;13.75;9.63;;;;;;;16.35;100.00;101290.88;4890507;29;20053;-72
2022/06/27 04:05:05;;;;;;;14.82;9.40;;;;;;;16.32;100.00;101302.31;4899543;29;20112;-72
2022/06/27 04:07:30;;;;;;;11.95;9.63;;;;;;;16.26;100.00;101297.81;4899170;29;20032;-72
2022/06/27 04:09:57;;;;;;;12.65;9.52;;;;;;;16.35;100.00;101279.09;4898690;29;20032;-71
2022/06/27 04:12:23;;;;;;;14.90;9.95;;;;;;;16.44;100.00;101283.03;4907615;29;20055;-70
2022/06/27 04:14:48;;;;;;;16.17;10.02;;;;;;;16.52;100.00;101281.78;4898966;29;20036;-71
2022/06/27 04:17:13;;;;;;;17.27;10.05;;;;;;;16.55;100.00;101289.47;4898675;29;20032;-72
2022/06/27 04:19:39;;;;;;;13.93;10.30;;;;;;;16.62;100.00;101281.91;4898827;29;20037;-70
2022/06/27 04:22:04;;;;;;;16.55;10.50;;;;;;;16.60;100.00;101270.41;4898923;29;20028;-73
2022/06/27 04:24:30;;;;;;;17.85;11.25;;;;;;;16.55;100.00;101262.97;4898975;29;20376;-73
2022/06/27 04:26:55;;;;;;;24.98;12.07;;;;;;;16.52;100.00;101255.28;4898649;29;20035;-73
2022/06/27 04:29:21;;;;;;;17.88;11.35;;;;;;;16.54;100.00;101255.03;4898779;29;20036;-71
2022/06/27 04:31:47;;;;;;;23.48;11.23;;;;;;;16.59;100.00;101257.81;4898265;29;20035;-71
2022/06/27 04:34:12;;;;;;;17.13;11.20;;;;;;;16.57;100.00;101243.59;4897222;29;20029;-72
2022/06/27 04:36:39;;;;;;;26.27;12.02;;;;;;;16.55;100.00;101223.91;4898518;29;20032;-71
2022/06/27 04:39:05;;;;;;;24.15;12.32;;;;;;;16.49;100.00;101206.63;4898674;29;20040;-72
2022/06/27 04:41:30;;;;;;;24.67;12.82;;;;;;;16.59;100.00;101206.75;4898607;29;20095;-70
2022/06/27 04:43:56;;;;;;;33.90;13.05;;;;;;;16.64;100.00;101219.66;4897956;29;20119;-70
2022/06/27 04:46:22;;;;;;;24.52;12.60;;;;;;;16.72;100.00;101230.09;4898533;29;20032;-73
2022/06/27 04:48:48;;;;;;;22.27;12.27;;;;;;;16.79;100.00;101227.19;4881437;29;20047;-72
2022/06/27 04:51:14;;;;;;;20.40;13.60;;;;;;;16.80;100.00;101229.66;4898528;29;20369;-71
2022/06/27 04:53:40;;;;;;;23.10;12.68;;;;;;;16.89;100.00;101240.16;4898180;29;20033;-70
2022/06/27 04:56:06;;;;;;;28.20;13.35;;;;;;;16.93;100.00;101252.22;4898097;29;20039;-70
2022/06/27 04:58:32;;;;;;;25.58;13.25;;;;;;;16.95;100.00;101244.56;4879934;29;20049;-73
2022/06/27 05:00:57;;;;;;;26.92;14.25;;;;;;;16.96;100.00;101247.06;4879099;29;20062;-72
2022/06/27 05:03:23;;;;;;;24.77;13.38;;;;;;;17.00;100.00;101237.25;4880591;29;20084;-74
2022/06/27 05:05:50;;;;;;;18.08;13.00;;;;;;;17.02;100.00;101239.72;4899779;29;20503;-70
2022/06/27 05:08:16;;;;;;;20.38;13.25;;;;;;;17.05;100.00;101222.81;4917051;29;20099;-73
2022/06/27 05:10:41;;;;;;;18.17;13.60;;;;;;;17.07;100.00;101225.28;4916796;29;20551;-70
2022/06/27 05:13:06;;;;;;;18.80;13.65;;;;;;;17.06;100.00;101219.00;4916922;29;20032;-69
2022/06/27 05:15:32;;;;;;;15.10;13.50;;;;;;;17.03;100.00;101210.47;4899910;29;20490;-72
2022/06/27 05:17:57;;;;;;;17.10;13.90;;;;;;;17.02;100.00;101214.31;4916697;29;20084;-70
2022/06/27 05:20:23;;;;;;;20.02;13.70;;;;;;;16.95;100.00;101223.56;4888704;29;20036;-72
2022/06/27 05:22:49;;;;;;;19.90;15.27;;;;;;;16.92;100.00;101239.63;4890798;29;20447;-72
2022/06/27 05:25:14;;;;;;;19.52;14.38;;;;;;;16.97;100.00;101243.25;4897835;29;20111;-70
2022/06/27 05:27:40;;;;;;;18.63;14.32;;;;;;;16.93;100.00;101236.63;4897082;29;20036;-72
2022/06/27 05:30:06;;;;;;;20.45;14.20;;;;;;;16.94;100.00;101229.25;4881006;29;20032;-73
2022/06/27 05:32:32;;;;;;;20.95;14.80;;;;;;;16.94;100.00;101240.19;4897809;29;20040;-72
2022/06/27 05:34:57;;;;;;;22.45;14.90;;;;;;;16.98;100.00;101261.31;4897310;29;20040;-73
2022/06/27 05:37:22;;;;;;;17.63;13.98;;;;;;;17.01;100.00;101287.28;4897733;29;20093;-70
2022/06/27 05:39:48;;;;;;;18.40;14.65;;;;;;;17.04;100.00;101302.34;4880625;29;20080;-71
2022/06/27 05:42:13;;;;;;;20.55;15.00;;;;;;;17.05;100.00;101318.50;4879892;29;20124;-70
2022/06/27 05:44:39;;;;;;;20.77;15.23;;;;;;;17.07;100.00;101334.66;4897628;29;20036;-72
2022/06/27 05:47:05;;;;;;;23.00;14.80;;;;;;;17.08;100.00;101334.38;4880795;29;20060;-70
2022/06/27 05:49:31;;;;;;;22.30;15.18;;;;;;;17.05;100.00;101340.38;4897567;29;20071;-72
2022/06/27 05:51:57;;;;;;;19.48;14.68;;;;;;;17.06;100.00;101347.50;4880475;29;20436;-70
2022/06/27 05:54:24;;;;;;;23.63;15.65;;;;;;;17.05;100.00;101355.97;4894131;29;20041;-73
2022/06/27 05:56:49;;;;;;;20.20;15.43;;;;;;;17.06;100.00;101369.38;4878386;29;20044;-72
2022/06/27 05:59:16;;;;;;;28.90;15.77;;;;;;;17.06;100.00;101354.88;4878850;29;20033;-71
2022/06/27 06:01:41;;;;;;;22.70;15.15;;;;;;;17.07;100.00;101360.06;4883574;29;20052;-73
2022/06/27 06:04:08;;;;;;;20.70;15.35;;;;;;;17.07;100.00;101346.41;4916467;29;20029;-70
2022/06/27 06:06:33;;;;;;;21.42;15.80;;;;;;;17.06;100.00;101338.47;4916349;29;20071;-71
2022/06/27 06:08:59;;;;;;;18.67;15.30;;;;;;;17.12;100.00;101327.34;4916165;29;20074;-72
2022/06/27 06:11:25;;;;;;;23.33;16.05;;;;;;;17.15;100.00;101326.81;4916265;29;20037;-71
2022/06/27 06:13:52;;;;;;;26.15;15.57;;;;;;;17.15;100.00;101331.44;4916021;29;20043;-70
2022/06/27 06:16:19;;;;;;;20.40;16.08;;;;;;;17.11;100.00;101331.16;4883817;29;20040;-72
2022/06/27 06:18:55;;;;;;;21.15;15.27;;;;;;;17.06;100.00;101328.38;4882225;29;20033;-71
2022/06/27 06:21:22;;;;;;;19.65;16.17;;;;;;;17.12;100.00;101343.75;4865599;29;20413;-72
2022/06/27 06:23:49;;;;;;;19.73;15.77;;;;;;;17.13;100.00;101355.50;4865363;29;20032;-71
2022/06/27 06:26:16;;;;;;;23.33;15.70;;;;;;;17.16;100.00;101374.13;4865540;29;20457;-70
2022/06/27 06:28:43;;;;;;;25.40;16.67;;;;;;;17.17;100.00;101382.06;4882514;29;20069;-71
2022/06/27 06:31:09;;;;;;;23.25;16.40;;;;;;;17.16;100.00;101371.38;4882142;29;20108;-70
2022/06/27 06:33:35;;;;;;;17.83;15.50;;;;;;;17.17;100.00;101365.66;4882141;29;20124;-71
2022/06/27 06:36:02;;;;;;;21.17;15.68;;;;;;;17.18;100.00;101367.31;4881810;29;20536;-71
2022/06/27 06:38:28;;;;;;;19.92;15.50;;;;;;;17.17;100.00;101362.94;4896919;29;20068;-71
2022/06/27 06:40:53;;;;;;;24.27;15.98;;;;;;;17.13;100.00;101345.38;4883701;29;20412;-72
2022/06/27 06:43:19;;;;;;;26.88;16.70;;;;;;;17.13;100.00;101339.91;4900718;29;20028;-70
2022/06/27 06:45:45;;;;;;;24.33;16.67;;;;;;;17.10;100.00;101313.06;4883554;29;20031;-73
2022/06/27 06:48:13;;;;;;;25.10;16.30;;;;;;;17.08;100.00;101300.75;4900751;29;20036;-72
2022/06/27 06:50:38;;;;;;;28.35;15.55;;;;;;;17.13;100.00;101301.63;4900698;29;20489;-73
2022/06/27 06:53:04;;;;;;;25.42;16.20;;;;;;;17.17;100.00;101302.75;4894921;29;20037;-73
2022/06/27 06:55:30;;;;;;;27.42;16.48;;;;;;;17.15;100.00;101296.75;4907902;29;20036;-71
2022/06/27 06:57:56;;;;;;;25.73;16.70;;;;;;;17.18;100.00;101288.03;4917445;29;20048;-73
2022/06/27 07:00:22;;;;;;;29.38;16.50;;;;;;;17.23;100.00;101295.44;4895798;29;20116;-72
2022/06/27 07:02:48;;;;;;;26.08;17.15;;;;;;;17.24;100.00;101307.19;4912000;29;20056;-73
2022/06/27 07:05:16;;;;;;;21.30;17.85;;;;;;;17.32;100.00;101309.47;4909964;29;20032;-72
2022/06/27 07:07:42;;;;;;;27.42;18.38;;;;;;;17.36;100.00;101308.69;4900229;29;20108;-72
2022/06/27 07:10:09;;;;;;;27.63;18.10;;;;;;;17.43;100.00;101304.94;4899986;29;20036;-72
2022/06/27 07:12:36;;;;;;;22.17;18.05;;;;;;;17.41;100.00;101276.97;4899920;29;20028;-73
2022/06/27 07:15:03;;;;;;;18.75;16.52;;;;;;;17.43;100.00;101283.84;4899886;29;20028;-72
2022/06/27 07:17:29;;;;;;;22.80;16.88;;;;;;;17.43;100.00;101300.28;4900046;29;20020;-72
2022/06/27 07:19:56;;;;;;;20.73;16.15;;;;;;;17.49;100.00;101318.38;4899943;29;20032;-74
2022/06/27 07:22:23;;;;;;;24.60;16.65;;;;;;;17.52;100.00;101315.13;4899294;29;20032;-73
2022/06/27 07:24:49;;;;;;;20.33;16.33;;;;;;;17.57;100.00;101329.94;4899758;29;20042;-73
2022/06/27 07:27:16;;;;;;;19.48;15.95;;;;;;;17.63;100.00;101345.31;4898989;29;20032;-72
2022/06/27 07:29:41;;;;;;;22.38;15.65;;;;;;;17.65;100.00;101354.09;4899569;29;20536;-73
2022/06/27 07:32:08;;;;;;;21.35;15.98;;;;;;;17.68;100.00;101328.97;4882760;29;20111;-71
2022/06/27 07:34:34;;;;;;;20.27;15.82;;;;;;;17.75;100.00;101335.00;4899876;29;20051;-73
2022/06/27 07:36:59;;;;;;;23.92;16.05;;;;;;;17.80;100.00;101331.50;4899598;29;20028;-72
2022/06/27 07:39:26;;;;;;;21.40;16.17;;;;;;;17.87;100.00;101335.69;4882364;29;20025;-72
2022/06/27 07:41:52;;;;;;;19.98;14.77;;;;;;;17.91;100.00;101346.13;4882370;29;20037;-71
2022/06/27 07:44:17;;;;;;;20.52;14.88;;;;;;;17.99;100.00;101346.44;4898919;29;20488;-71
2022/06/27 07:46:42;;;;;;;19.45;14.75;;;;;;;18.06;100.00;101341.59;4899667;29;20103;-72
2022/06/27 07:49:08;;;;;;;14.73;12.65;;;;;;;18.13;100.00;101341.38;4899402;29;20088;-72
2022/06/27 07:51:35;;;;;;;14.52;11.85;;;;;;;18.16;100.00;101356.44;4899546;29;20067;-71
2022/06/27 07:54:01;;;;;;;18.70;11.80;;;;;;;18.16;100.00;101360.00;4882439;29;20039;-71
2022/06/27 07:56:27;;;;;;;13.55;10.93;;;;;;;18.16;100.00;101361.91;4899501;29;20111;-72
2022/06/27 07:58:53;;;;;;;14.57;10.65;;;;;;;18.17;100.00;101361.63;4898523;29;20072;-72
2022/06/27 08:01:19;;;;;;;15.05;10.98;;;;;;;18.20;100.00;101374.81;4889075;29;20055;-71
2022/06/27 08:03:48;;;;;;;15.30;10.77;;;;;;;18.24;100.00;101381.41;4899289;29;20064;-73
2022/06/27 08:06:16;;;;;;;19.42;10.60;;;;;;;18.27;99.50;101373.75;4896517;29;20040;-74
2022/06/27 08:08:44;;;;;;;15.02;9.68;;;;;;;18.30;97.77;101367.75;4898461;29;20044;-73
2022/06/27 08:11:12;;;;;;;16.02;10.10;;;;;;;18.33;98.12;101373.53;4896766;29;20044;-74
2022/06/27 08:13:40;;;;;;;14.25;9.82;;;;;;;18.38;94.66;101380.97;4898823;29;20096;-74
2022/06/27 08:16:07;;;;;;;13.18;9.43;;;;;;;18.40;92.64;101381.50;4880908;29;20032;-74
2022/06/27 08:18:32;;;;;;;14.55;8.93;;;;;;;18.42;90.98;101360.16;4899012;29;20092;-74
2022/06/27 08:20:59;;;;;;;12.88;8.30;;;;;;;18.44;92.67;101365.38;4881964;29;20028;-75
2022/06/27 08:23:24;;;;;;;11.63;8.80;;;;;;;18.47;89.81;101379.38;4898343;29;20028;-74
2022/06/27 08:25:50;;;;;;;13.57;9.05;;;;;;;18.46;91.01;101371.41;4898743;29;20035;-74
2022/06/27 08:28:16;;;;;;;15.75;8.80;;;;;;;18.47;91.60;101390.31;4898907;29;20037;-74
2022/06/27 08:30:42;;;;;;;15.52;8.07;;;;;;;18.50;90.71;101394.47;4896119;29;20485;-74
2022/06/27 08:33:08;;;;;;;14.75;8.38;;;;;;;18.48;89.89;101396.63;4878755;29;20036;-72
2022/06/27 08:35:35;;;;;;;11.30;9.07;;;;;;;18.47;90.92;101406.78;4894966;29;20430;-73
2022/06/27 08:38:01;;;;;;;14.95;9.20;;;;;;;18.42;89.18;101396.59;4877815;29;20087;-71
2022/06/27 08:40:27;;;;;;;11.40;8.38;;;;;;;18.41;90.40;101399.63;4880258;29;20382;-74
2022/06/27 08:42:54;;;;;;;13.15;8.40;;;;;;;18.45;91.24;101400.75;4889714;29;20037;-73
2022/06/27 08:45:23;;;;;;;12.52;8.73;;;;;;;18.49;91.67;101410.06;4898683;29;20032;-75
2022/06/27 08:47:50;;;;;;;17.52;9.07;;;;;;;18.50;92.31;101400.75;4898256;29;20407;-75
2022/06/27 08:50:16;;;;;;;12.07;8.40;;;;;;;18.52;92.20;101393.09;4898323;29;20064;-75
2022/06/27 08:52:42;;;;;;;11.68;9.38;;;;;;;18.53;91.58;101399.41;4897779;29;20503;-76
2022/06/27 08:55:10;;;;;;;13.60;9.18;;;;;;;18.57;90.73;101397.81;4881227;29;20033;-75
2022/06/27 08:57:36;;;;;;;12.88;8.70;;;;;;;18.55;88.98;101403.53;4898009;29;20057;-77
2022/06/27 09:00:06;;;;;;;15.48;9.20;;;;;;;18.57;91.72;101398.63;4898032;29;20476;-75
2022/06/27 09:02:42;;;;;;;17.80;9.50;;;;;;;18.64;90.90;101414.00;4879899;29;20045;-75
2022/06/27 09:05:22;;;;;;;13.93;10.70;;;;;;;18.67;92.41;101427.16;4879361;29;20033;-77
2022/06/27 09:08:02;;;;;;;13.23;9.60;;;;;;;18.71;91.99;101431.03;4862888;29;20069;-75
2022/06/27 09:10:40;;;;;;;13.50;8.85;;;;;;;18.83;92.87;101430.84;4862726;29;20056;-76
2022/06/27 09:13:16;;;;;;;13.70;8.80;;;;;;;18.90;93.71;101426.78;4879142;29;20029;-75
2022/06/27 09:15:51;;;;;;;14.57;10.10;;;;;;;18.94;91.23;101422.41;4879178;29;20504;-76
2022/06/27 09:18:20;;;;;;;15.93;9.45;;;;;;;18.99;92.62;101407.88;4877955;29;20131;-76
2022/06/27 09:20:55;;;;;;;10.32;9.02;;;;;;;19.04;89.98;101404.34;4862610;29;20097;-76
2022/06/27 09:23:27;;;;;;;16.33;7.82;;;;;;;19.07;85.77;101409.31;4879272;29;20032;-77
2022/06/27 09:25:58;;;;;;;12.02;7.72;;;;;;;19.16;86.91;101426.88;4879145;29;20031;-76
2022/06/27 09:28:36;;;;;;;14.30;8.63;;;;;;;19.17;85.79;101427.72;4879228;29;20044;-76
2022/06/27 09:31:02;;;;;;;10.45;7.10;;;;;;;19.15;84.02;101418.94;4879045;29;20066;-74
2022/06/27 09:33:31;;;;;;;9.95;6.32;;;;;;;19.15;80.71;101424.41;4862403;29;20037;-76
2022/06/27 09:35:57;;;;;;;9.93;5.55;;;;;;;19.15;79.83;101432.66;4879266;29;20101;-74
2022/06/27 09:38:25;;;;;;;9.07;5.18;;;;;;;19.19;78.75;101420.88;4897766;29;20036;-75
2022/06/27 09:40:50;;;;;;;10.60;6.10;;;;;;;19.23;77.98;101419.22;4880942;29;20032;-77
2022/06/27 09:43:19;;;;;;;11.43;5.53;;;;;;;19.29;77.81;101420.06;4897126;29;20053;-74
2022/06/27 09:45:46;;;;;;;8.30;6.40;;;;;;;19.38;78.97;101412.13;4897600;29;20043;-75
2022/06/27 09:48:13;;;;;;;11.43;7.53;;;;;;;19.42;78.61;101414.06;4897287;29;20039;-75
2022/06/27 09:50:40;;;;;;;9.60;6.15;;;;;;;19.44;76.85;101419.28;4897286;29;20047;-75
2022/06/27 09:53:05;;;;;;;10.27;6.47;;;;;;;19.49;77.01;101411.06;4882452;29;20135;-75
2022/06/27 09:55:31;;;;;;;10.95;6.00;;;;;;;19.50;77.10;101412.69;4878912;29;20141;-75
2022/06/27 09:57:57;;;;;;;9.80;5.70;;;;;;;19.59;79.39;101416.56;4878588;29;20062;-77
2022/06/27 10:00:24;;;;;;;8.20;5.32;;;;;;;19.58;78.18;101417.69;4878319;29;20036;-76
2022/06/27 10:02:51;;;;;;;9.63;5.45;;;;;;;19.61;77.25;101402.56;4890922;29;20052;-76
2022/06/27 10:05:18;;;;;;;6.38;4.18;;;;;;;19.59;75.47;101393.78;4915705;29;20383;-75
2022/06/27 10:07:52;;;;;;;8.40;4.13;;;;;;;19.60;76.48;101401.75;4899295;29;20531;-74
2022/06/27 10:10:17;;;;;;;5.70;3.75;;;;;;;19.64;73.46;101402.84;4899099;29;20036;-75
2022/06/27 10:12:55;;;;;;;15.90;5.05;;;;;;;19.74;76.37;101392.97;4892256;29;20089;-76
2022/06/27 10:15:22;;;;;;;7.78;5.10;;;;;;;19.89;76.35;101392.19;4861949;29;20056;-75
2022/06/27 10:17:53;;;;;;;8.40;5.60;;;;;;;20.04;77.73;101385.88;4878777;29;20029;-77
2022/06/27 10:20:41;;;;;;;9.32;5.07;;;;;;;20.15;76.78;101390.25;4861737;29;20037;-77
2022/06/27 10:23:06;;;;;;;8.68;4.70;;;;;;;20.23;76.99;101397.09;4877143;29;20395;-76
2022/06/27 10:25:31;;;;;;;9.33;4.63;;;;;;;20.24;77.69;101385.84;4878351;29;20108;-74
2022/06/27 10:28:09;;;;;;;10.50;4.53;;;;;;;20.32;76.59;101384.44;4878355;29;20357;-75
2022/06/27 10:30:54;;;;;;;7.57;3.90;;;;;;;20.32;74.83;101390.78;4878398;29;20380;-75
2022/06/27 10:33:25;;;;;;;7.85;3.88;;;;;;;20.25;73.61;101392.19;4879376;29;20056;-76
2022/06/27 10:36:02;;;;;;;7.38;3.92;;;;;;;20.22;73.92;101396.28;4896582;29;20037;-75
2022/06/27 10:38:30;;;;;;;15.88;3.72;;;;;;;20.14;72.36;101392.19;4880387;29;20488;-76
2022/06/27 10:40:58;;;;;;;7.82;3.17;;;;;;;20.10;73.93;101396.56;4896878;29;20488;-76
2022/06/27 10:43:35;;;;;;;8.55;3.10;;;;;;;20.08;73.04;101403.44;4897081;29;20036;-76
2022/06/27 10:46:21;;;;;;;8.77;3.50;;;;;;;19.98;72.07;101407.84;4896716;29;20032;-75
2022/06/27 10:48:51;;;;;;;8.43;3.22;;;;;;;19.93;70.97;101404.25;4880218;29;20076;-75
2022/06/27 10:51:24;;;;;;;6.82;3.00;;;;;;;19.90;71.04;101402.91;4896939;29;20944;-74
2022/06/27 10:54:05;;;;;;;5.38;2.97;;;;;;;19.88;72.74;101402.34;4894605;29;20155;-76
2022/06/27 10:56:51;;;;;;;8.32;3.15;;;;;;;19.85;73.77;101400.13;4878446;29;20045;-76
2022/06/27 10:59:16;;;;;;;7.53;3.13;;;;;;;19.85;73.56;101402.88;4861410;29;20041;-75
2022/06/27 11:01:52;;;;;;;6.37;3.40;;;;;;;19.81;74.91;101412.78;4867847;29;20063;-77
2022/06/27 11:04:32;;;;;;;7.70;3.42;;;;;;;19.81;74.62;101418.28;4918867;29;20302;-76
2022/06/27 11:07:03;;;;;;;9.35;3.97;;;;;;;19.79;75.15;101404.84;4919226;29;20047;-75
2022/06/27 11:09:46;;;;;;;6.55;3.85;;;;;;;19.86;75.98;101404.53;4901999;29;20052;-74
2022/06/27 11:12:14;;;;;;;9.63;3.80;;;;;;;19.87;75.42;101405.34;4883187;29;20461;-75
2022/06/27 11:14:51;;;;;;;8.63;3.78;;;;;;;19.91;75.23;101407.28;4883282;29;20388;-77